Time;durP1;ratioP1;P1;durP2;ratioP2;P2;SDS_P1;SDS_P2;PMS_P1;PMS_P2;Temp;Humidity;BMP_temperature;BMP_pressure;BME280_temperature;BME280_humidity;BME280_pressure;Samples;Min_cycle;Max_cycle;Signal;HPM_P1;HPM_P2
2021/01/20 00:00:38;;;;;;;42.60;13.33;;;;;;;-17.83;57.43;100110.33;1741654;79;21691;-56
2021/01/20 00:03:05;;;;;;;47.70;14.10;;;;;;;-17.82;57.45;100105.69;1739955;79;21634;-55
2021/01/20 00:05:33;;;;;;;53.90;15.53;;;;;;;-17.82;57.45;100105.69;1742737;79;22132;-55
2021/01/20 00:08:00;;;;;;;45.90;16.27;;;;;;;-17.80;57.32;100110.55;1741849;79;22032;-55
2021/01/20 00:10:27;;;;;;;51.87;15.30;;;;;;;-17.85;57.19;100104.57;1742201;79;22000;-53
2021/01/20 00:12:54;;;;;;;42.77;13.13;;;;;;;-17.85;57.19;100104.57;1740824;79;21477;-55
2021/01/20 00:15:23;;;;;;;39.10;12.23;;;;;;;-17.84;57.32;100111.50;1737537;79;21993;-56
2021/01/20 00:17:51;;;;;;;41.20;13.33;;;;;;;-17.85;57.37;100109.72;1741141;79;21552;-55
2021/01/20 00:20:19;;;;;;;50.37;14.90;;;;;;;-17.85;57.37;100109.72;1739611;79;21548;-52
2021/01/20 00:22:47;;;;;;;44.80;12.47;;;;;;;-17.86;57.24;100105.39;1759350;79;21531;-51
2021/01/20 00:25:19;;;;;;;50.17;15.07;;;;;;;-17.94;57.14;100112.94;1792994;77;22097;-53
2021/01/20 00:27:47;;;;;;;50.77;14.23;;;;;;;-18.06;57.37;100104.01;1787155;77;21414;-52
2021/01/20 00:30:15;;;;;;;40.73;12.07;;;;;;;-18.05;57.58;100098.98;1784705;77;21699;-55
2021/01/20 00:32:42;;;;;;;41.73;12.17;;;;;;;-17.97;57.65;100099.90;1783865;77;21496;-55
2021/01/20 00:35:11;;;;;;;38.40;11.47;;;;;;;-17.91;57.69;100099.02;1781535;77;21621;-52
2021/01/20 00:37:38;;;;;;;43.13;12.87;;;;;;;-17.89;57.74;100098.73;1784828;77;21335;-54
2021/01/20 00:40:07;;;;;;;43.23;12.63;;;;;;;-17.84;57.80;100102.50;1788565;77;22041;-51
2021/01/20 00:42:34;;;;;;;40.33;12.73;;;;;;;-17.79;57.64;100112.34;1781849;77;22736;-52
2021/01/20 00:45:04;;;;;;;51.60;15.13;;;;;;;-17.79;57.64;100112.34;1771744;77;21539;-53
2021/01/20 00:47:31;;;;;;;47.13;13.43;;;;;;;-17.78;57.45;100099.98;1783530;77;21864;-52
2021/01/20 00:49:59;;;;;;;45.83;14.50;;;;;;;-17.75;57.47;100096.70;1782328;78;21485;-53
2021/01/20 00:52:26;;;;;;;55.60;15.90;;;;;;;-17.74;57.64;100107.09;1782270;77;21610;-53
2021/01/20 00:54:54;;;;;;;56.60;15.93;;;;;;;-17.75;57.34;100096.70;1782894;77;21501;-50
2021/01/20 00:57:21;;;;;;;53.90;16.43;;;;;;;-17.75;57.34;100096.70;1783428;77;21714;-54
2021/01/20 00:59:49;;;;;;;55.63;16.27;;;;;;;-17.74;57.23;100096.81;1770716;77;21521;-51
2021/01/20 01:02:16;;;;;;;44.23;13.00;;;;;;;-17.80;57.18;100100.27;1781470;77;21901;-52
2021/01/20 01:04:44;;;;;;;54.17;15.80;;;;;;;-17.80;57.18;100100.27;1781334;77;22848;-54
2021/01/20 01:07:13;;;;;;;51.33;14.03;;;;;;;-17.84;57.07;100099.55;1784610;77;22042;-51
2021/01/20 01:09:41;;;;;;;46.17;14.77;;;;;;;-17.88;57.22;100096.67;1783216;77;21520;-55
2021/01/20 01:12:10;;;;;;;54.73;14.63;;;;;;;-17.87;57.40;100095.50;1787101;77;21510;-55
2021/01/20 01:14:37;;;;;;;55.60;18.57;;;;;;;-17.87;57.39;100099.35;1783006;77;21908;-53
2021/01/20 01:17:07;;;;;;;61.97;16.20;;;;;;;-17.89;57.15;100091.92;1782088;77;21645;-55
2021/01/20 01:19:36;;;;;;;47.70;14.20;;;;;;;-17.94;56.94;100089.41;1782036;77;21882;-54
2021/01/20 01:22:04;;;;;;;51.80;15.93;;;;;;;-18.06;57.50;100094.63;1780098;78;21472;-55
2021/01/20 01:24:33;;;;;;;49.63;14.80;;;;;;;-18.06;57.50;100094.63;1779017;77;21559;-52
2021/01/20 01:27:00;;;;;;;57.67;16.70;;;;;;;-18.06;57.49;100095.02;1780740;77;21563;-55
2021/01/20 01:29:28;;;;;;;59.40;16.80;;;;;;;-18.03;57.54;100095.63;1780615;77;23172;-54
2021/01/20 01:31:57;;;;;;;50.27;15.60;;;;;;;-18.01;57.49;100090.17;1785185;77;21803;-51
2021/01/20 01:34:25;;;;;;;49.57;14.70;;;;;;;-18.01;57.51;100092.75;1785268;77;21520;-51
2021/01/20 01:36:52;;;;;;;51.57;13.83;;;;;;;-18.01;57.51;100092.75;1762669;78;21579;-52
2021/01/20 01:39:34;;;;;;;63.17;17.83;;;;;;;-17.95;57.59;100099.22;1839201;75;22762;-54
2021/01/20 01:42:09;;;;;;;52.97;16.27;;;;;;;-18.00;57.48;100099.28;1781302;77;21484;-51
2021/01/20 01:44:34;;;;;;;56.97;19.17;;;;;;;-17.98;57.50;100101.97;1774299;79;22284;-55
2021/01/20 01:47:02;;;;;;;60.43;17.73;;;;;;;-17.96;57.74;100099.11;1766979;78;21663;-55
2021/01/20 01:49:42;;;;;;;62.83;18.10;;;;;;;-17.91;57.54;100102.88;1780858;78;21803;-52
2021/01/20 01:52:11;;;;;;;61.17;18.83;;;;;;;-17.91;57.52;100098.63;1805133;77;21282;-56
2021/01/20 01:54:43;;;;;;;56.13;16.43;;;;;;;-17.91;57.48;100095.16;1804089;77;22543;-53
2021/01/20 01:57:24;;;;;;;54.60;16.13;;;;;;;-17.90;57.45;100090.14;1865749;75;23610;-51
2021/01/20 01:59:51;;;;;;;69.07;18.90;;;;;;;-17.96;57.46;100094.87;1839553;77;21426;-51
2021/01/20 02:02:23;;;;;;;74.97;20.87;;;;;;;-18.01;57.26;100089.78;1832663;76;23134;-51
2021/01/20 02:04:51;;;;;;;75.83;20.87;;;;;;;-18.10;57.43;100086.19;1839155;76;21313;-54
2021/01/20 02:07:18;;;;;;;71.50;24.13;;;;;;;-18.12;57.69;100086.89;1840210;76;21713;-49
2021/01/20 02:09:50;;;;;;;78.53;21.80;;;;;;;-18.13;57.83;100083.83;1840504;76;21350;-54
2021/01/20 02:12:25;;;;;;;53.60;17.60;;;;;;;-18.09;58.04;100091.83;1813591;77;21328;-51
2021/01/20 02:15:10;;;;;;;73.63;21.33;;;;;;;-18.09;58.04;100091.83;1803739;78;23095;-50
2021/01/20 02:17:46;;;;;;;63.17;20.60;;;;;;;-18.05;57.94;100104.13;1802441;78;21348;-56
2021/01/20 02:20:36;;;;;;;83.03;24.70;;;;;;;-18.02;58.07;100096.09;1802643;77;21537;-51
2021/01/20 02:23:06;;;;;;;64.00;20.10;;;;;;;-17.99;58.15;100101.46;1803979;78;22440;-52
2021/01/20 02:26:12;;;;;;;79.40;25.17;;;;;;;-17.97;58.19;100098.22;1803000;77;21704;-53
2021/01/20 02:29:38;;;;;;;78.70;24.27;;;;;;;-17.93;57.66;100111.77;1798017;77;22180;-51
2021/01/20 02:32:17;;;;;;;66.50;22.17;;;;;;;-17.85;57.61;100114.47;1863969;75;23113;-51
2021/01/20 02:34:46;;;;;;;82.23;23.40;;;;;;;-18.00;57.46;100100.95;1832634;76;21222;-53
2021/01/20 02:37:13;;;;;;;81.40;25.33;;;;;;;-18.01;57.75;100110.73;1843911;76;21440;-51
2021/01/20 02:39:59;;;;;;;88.63;25.93;;;;;;;-17.97;57.71;100112.75;1865691;75;23136;-51
2021/01/20 02:42:28;;;;;;;87.53;26.60;;;;;;;-18.05;57.80;100109.27;1796571;77;22826;-52
2021/01/20 02:44:58;;;;;;;88.07;29.47;;;;;;;-18.07;57.84;100107.36;1772551;79;22112;-54
2021/01/20 02:47:45;;;;;;;139.90;61.02;;;;;;;-18.03;57.92;100103.34;1851023;75;27722;-54
2021/01/20 02:50:14;;;;;;;116.67;37.97;;;;;;;-18.00;58.03;100101.85;1838405;76;21766;-53
2021/01/20 02:53:10;;;;;;;98.37;32.43;;;;;;;-18.00;58.03;100101.85;1838100;76;22258;-55
2021/01/20 02:56:03;;;;;;;91.20;29.37;;;;;;;-17.99;57.99;100104.92;1788775;78;21914;-53
2021/01/20 02:58:37;;;;;;;93.07;30.73;;;;;;;-17.97;58.02;100112.36;1781449;78;21474;-52
2021/01/20 03:01:25;;;;;;;95.17;29.97;;;;;;;-17.98;57.82;100123.42;1709389;81;21644;-55
2021/01/20 03:03:53;;;;;;;90.47;29.57;;;;;;;-17.98;57.82;100123.42;1709811;81;21515;-53
2021/01/20 03:06:20;;;;;;;102.00;28.43;;;;;;;-17.96;57.69;100125.71;1715880;78;21714;-55
2021/01/20 03:08:47;;;;;;;96.87;32.97;;;;;;;-17.97;57.86;100127.78;1764859;78;21973;-54
2021/01/20 03:11:14;;;;;;;77.63;26.93;;;;;;;-17.99;57.93;100134.48;1801128;77;21979;-55
2021/01/20 03:13:41;;;;;;;86.10;27.70;;;;;;;-18.02;57.98;100130.80;1782011;78;21406;-53
2021/01/20 03:16:09;;;;;;;88.97;27.43;;;;;;;-18.00;58.06;100132.70;1799680;77;22002;-54
2021/01/20 03:18:36;;;;;;;98.07;32.23;;;;;;;-18.00;58.06;100132.70;1782997;78;21584;-51
2021/01/20 03:21:04;;;;;;;93.50;28.77;;;;;;;-17.99;58.26;100138.73;1766634;79;21550;-56
2021/01/20 03:23:33;;;;;;;94.67;33.93;;;;;;;-17.99;58.34;100133.59;1803361;78;21344;-54
2021/01/20 03:26:00;;;;;;;93.47;33.70;;;;;;;-18.01;58.26;100133.48;1799413;78;21303;-54
2021/01/20 03:28:27;;;;;;;100.17;32.00;;;;;;;-18.02;58.42;100129.12;1745254;79;21511;-51
2021/01/20 03:30:55;;;;;;;95.63;28.40;;;;;;;-17.99;58.33;100128.45;1802880;78;22760;-53
2021/01/20 03:33:22;;;;;;;82.13;25.43;;;;;;;-17.99;58.27;100126.77;1798636;78;22051;-51
2021/01/20 03:35:49;;;;;;;97.23;33.40;;;;;;;-18.07;58.27;100135.24;1767703;79;21550;-56
2021/01/20 03:38:16;;;;;;;85.80;29.87;;;;;;;-18.14;58.36;100135.61;1780357;78;21998;-55
2021/01/20 03:40:43;;;;;;;105.83;31.20;;;;;;;-18.11;58.41;100132.33;1775825;78;21424;-52
2021/01/20 03:43:10;;;;;;;83.40;27.43;;;;;;;-18.08;58.41;100131.27;1768216;79;23001;-52
2021/01/20 03:45:37;;;;;;;74.20;25.63;;;;;;;-18.03;58.47;100123.51;1761254;78;23105;-55
2021/01/20 03:48:05;;;;;;;76.03;23.70;;;;;;;-17.95;58.60;100115.94;1788274;78;21660;-55
2021/01/20 03:50:32;;;;;;;91.93;29.87;;;;;;;-17.95;58.60;100115.94;1784260;78;21531;-52
2021/01/20 03:53:00;;;;;;;83.43;25.30;;;;;;;-17.92;58.55;100115.23;1783601;78;21494;-53
2021/01/20 03:55:27;;;;;;;79.40;26.53;;;;;;;-17.86;58.41;100112.67;1783525;78;22331;-52
2021/01/20 03:57:55;;;;;;;78.00;26.53;;;;;;;-17.86;58.41;100112.67;1784334;78;21658;-56
2021/01/20 04:00:22;;;;;;;87.33;31.60;;;;;;;-17.81;58.47;100111.72;1783647;78;21479;-54
2021/01/20 04:02:49;;;;;;;86.37;25.57;;;;;;;-17.78;58.56;100110.27;1783107;79;22339;-53
2021/01/20 04:05:27;;;;;;;95.07;29.47;;;;;;;-17.72;58.54;100103.35;1870371;75;22664;-54
2021/01/20 04:07:54;;;;;;;84.07;27.40;;;;;;;-17.77;58.46;100099.55;1836139;76;21376;-51
2021/01/20 04:10:22;;;;;;;78.60;26.37;;;;;;;-17.80;58.50;100094.23;1837583;76;21711;-54
2021/01/20 04:12:49;;;;;;;79.93;26.23;;;;;;;-17.82;58.70;100085.12;1782868;78;21978;-53
2021/01/20 04:15:17;;;;;;;88.63;26.10;;;;;;;-17.83;58.78;100087.19;1799493;78;21860;-52
2021/01/20 04:17:44;;;;;;;86.47;27.17;;;;;;;-17.84;59.08;100090.94;1799225;78;21391;-52
2021/01/20 04:20:13;;;;;;;76.70;25.03;;;;;;;-17.84;59.18;100094.40;1767432;79;21408;-54
2021/01/20 04:22:40;;;;;;;72.67;22.97;;;;;;;-17.79;59.21;100089.59;1762220;79;21691;-53
2021/01/20 04:25:11;;;;;;;88.00;24.90;;;;;;;-17.79;59.21;100089.59;1777578;78;21525;-51
2021/01/20 04:27:38;;;;;;;81.87;25.77;;;;;;;-17.74;59.29;100086.92;1775442;78;21319;-54
2021/01/20 04:30:07;;;;;;;74.43;23.43;;;;;;;-17.71;59.44;100089.31;1776738;79;21634;-54
2021/01/20 04:32:34;;;;;;;83.23;24.47;;;;;;;-17.71;59.40;100090.61;1782222;79;21577;-51
2021/01/20 04:35:03;;;;;;;70.77;23.60;;;;;;;-17.66;59.31;100095.65;1772220;79;21807;-51
2021/01/20 04:37:30;;;;;;;71.50;22.60;;;;;;;-17.66;59.31;100095.65;1773296;78;22094;-52
2021/01/20 04:39:58;;;;;;;80.57;26.27;;;;;;;-17.64;59.41;100097.05;1784745;78;21602;-52
2021/01/20 04:42:25;;;;;;;84.17;25.97;;;;;;;-17.61;59.39;100095.08;1762785;78;21884;-52
2021/01/20 04:44:53;;;;;;;90.23;25.37;;;;;;;-17.60;59.37;100105.84;1782426;78;21583;-51
2021/01/20 04:47:20;;;;;;;84.77;28.07;;;;;;;-17.60;59.38;100104.55;1782534;78;21571;-52
2021/01/20 04:49:50;;;;;;;80.97;27.93;;;;;;;-17.62;59.38;100098.44;1782740;78;21618;-55
2021/01/20 04:52:19;;;;;;;78.20;26.67;;;;;;;-17.62;59.38;100098.44;1806305;77;21549;-50
2021/01/20 04:54:46;;;;;;;82.93;28.17;;;;;;;-17.61;59.55;100098.94;1804488;78;22247;-54
2021/01/20 04:57:13;;;;;;;79.83;25.70;;;;;;;-17.61;59.55;100098.94;1807934;77;21636;-51
2021/01/20 04:59:41;;;;;;;79.53;25.03;;;;;;;-17.64;59.61;100097.05;1806684;77;22971;-51
2021/01/20 05:02:09;;;;;;;83.70;25.97;;;;;;;-17.62;59.56;100101.01;1775320;78;22694;-52
2021/01/20 05:04:38;;;;;;;91.47;25.37;;;;;;;-17.60;59.64;100104.55;1801562;77;21575;-50
2021/01/20 05:07:07;;;;;;;77.37;27.30;;;;;;;-17.58;59.59;100102.95;1771068;80;21593;-54
2021/01/20 05:09:36;;;;;;;81.17;26.20;;;;;;;-17.51;59.60;100119.28;1769550;80;22553;-55
2021/01/20 05:12:04;;;;;;;80.20;26.00;;;;;;;-17.51;59.60;100119.28;1770400;80;22280;-52
2021/01/20 05:14:38;;;;;;;81.93;26.07;;;;;;;-17.49;59.75;100117.32;1775475;80;21709;-54
2021/01/20 05:17:07;;;;;;;79.10;28.27;;;;;;;-17.49;59.75;100117.32;1770638;80;21637;-54
2021/01/20 05:19:37;;;;;;;93.43;27.47;;;;;;;-17.49;59.74;100118.61;1774398;80;21092;-53
2021/01/20 05:22:07;;;;;;;77.97;23.27;;;;;;;-17.49;59.74;100118.61;1772082;80;21652;-52
2021/01/20 05:24:38;;;;;;;91.93;29.97;;;;;;;-17.45;59.82;100131.30;1745935;80;21599;-54
2021/01/20 05:27:06;;;;;;;93.17;28.10;;;;;;;-17.45;59.74;100131.30;1773332;80;22362;-51
2021/01/20 05:29:33;;;;;;;83.70;27.83;;;;;;;-17.42;59.91;100141.77;1773226;80;21598;-54
2021/01/20 05:32:15;;;;;;;79.83;24.70;;;;;;;-17.42;59.91;100141.77;1773076;80;21507;-53
2021/01/20 05:35:05;;;;;;;47.78;16.35;;;;;;;-17.36;60.24;100148.64;1771354;80;21719;-50
2021/01/20 05:37:43;;;;;;;68.77;20.80;;;;;;;-17.32;60.66;100146.36;1773207;80;21534;-52
2021/01/20 05:40:13;;;;;;;72.07;19.53;;;;;;;-17.32;60.66;100146.36;1773017;79;22955;-53
2021/01/20 05:42:49;;;;;;;73.50;24.57;;;;;;;-17.21;61.41;100143.61;1772810;80;21669;-53
2021/01/20 05:45:22;;;;;;;82.40;25.03;;;;;;;-17.17;61.50;100137.86;1771063;80;21514;-53
2021/01/20 05:48:07;;;;;;;46.10;15.57;;;;;;;-17.17;61.50;100137.86;1772218;80;21623;-54
2021/01/20 05:50:37;;;;;;;78.47;23.50;;;;;;;-17.11;61.70;100144.73;1776600;80;22327;-54
2021/01/20 05:53:10;;;;;;;69.93;23.77;;;;;;;-17.00;61.96;100143.73;1773447;80;21651;-54
2021/01/20 05:55:38;;;;;;;77.62;23.32;;;;;;;-17.00;61.96;100143.73;1776408;80;21541;-54
2021/01/20 05:58:06;;;;;;;68.07;18.47;;;;;;;-16.92;62.08;100143.44;1775586;80;21150;-51
2021/01/20 06:00:33;;;;;;;63.07;20.60;;;;;;;-16.86;62.39;100139.11;1770120;80;21882;-54
2021/01/20 06:03:00;;;;;;;52.23;14.60;;;;;;;-16.86;62.39;100139.11;1773177;80;21886;-52
2021/01/20 06:07:16;;;;;;;62.40;19.47;;;;;;;-16.73;62.41;100143.35;1820364;76;22722;-55
2021/01/20 06:09:45;;;;;;;55.87;15.90;;;;;;;-16.78;62.40;100139.20;1743743;80;21184;-53
2021/01/20 06:12:14;;;;;;;53.43;14.53;;;;;;;-16.65;62.91;100134.04;1742963;79;22204;-54
2021/01/20 06:14:43;;;;;;;48.77;12.40;;;;;;;-16.58;63.13;100132.70;1741639;79;22144;-56
2021/01/20 06:17:41;;;;;;;48.17;14.87;;;;;;;-16.58;63.13;100117.25;1741487;79;21576;-54
2021/01/20 06:20:10;;;;;;;55.17;17.47;;;;;;;-16.51;63.04;100129.75;1740801;79;21795;-54
2021/01/20 06:22:48;;;;;;;41.17;9.43;;;;;;;-16.44;63.45;100140.05;1745215;79;21987;-57
2021/01/20 06:25:29;;;;;;;56.77;16.13;;;;;;;-16.32;63.49;100142.98;1742452;79;21980;-56
2021/01/20 06:28:02;;;;;;;58.27;19.67;;;;;;;-16.32;63.49;100142.98;1739385;80;21892;-52
2021/01/20 06:30:50;;;;;;;57.20;16.73;;;;;;;-16.31;63.41;100136.14;1737955;79;21930;-55
2021/01/20 06:33:18;;;;;;;53.37;17.27;;;;;;;-16.26;63.56;100132.19;1649008;84;21913;-50
2021/01/20 06:35:50;;;;;;;37.07;11.03;;;;;;;-16.16;63.57;100153.89;1651379;85;21928;-55
2021/01/20 06:38:32;;;;;;;81.50;23.67;;;;;;;-16.11;63.65;100152.48;1653310;85;22424;-53
2021/01/20 06:41:07;;;;;;;51.43;16.37;;;;;;;-15.99;63.61;100155.84;1640460;84;22266;-54
2021/01/20 06:43:46;;;;;;;61.53;20.03;;;;;;;-15.96;63.72;100151.24;1664758;84;21839;-54
2021/01/20 06:46:27;;;;;;;71.63;20.20;;;;;;;-15.96;63.72;100151.24;1682146;83;22493;-54
2021/01/20 06:49:01;;;;;;;58.97;18.00;;;;;;;-15.86;63.70;100166.49;1695739;83;22333;-55
2021/01/20 06:51:29;;;;;;;46.40;14.73;;;;;;;-15.79;63.74;100163.09;1681151;83;22443;-55
2021/01/20 06:54:08;;;;;;;45.00;15.10;;;;;;;-15.74;63.72;100172.03;1692246;83;21980;-56
2021/01/20 06:56:47;;;;;;;60.23;21.23;;;;;;;-15.67;63.75;100169.42;1693275;83;22009;-55
2021/01/20 06:59:24;;;;;;;44.60;14.17;;;;;;;-15.60;63.81;100168.09;1693518;83;21893;-54
2021/01/20 07:02:11;;;;;;;61.33;17.53;;;;;;;-15.54;63.86;100166.77;1692095;83;22264;-57
2021/01/20 07:04:50;;;;;;;36.87;12.83;;;;;;;-15.47;63.85;100162.83;1692833;83;21937;-52
2021/01/20 07:07:53;;;;;;;43.70;11.30;;;;;;;-15.40;63.90;100174.05;1695049;83;21906;-54
2021/01/20 07:10:26;;;;;;;49.47;14.60;;;;;;;-15.34;63.90;100170.13;1683884;83;21998;-55
2021/01/20 07:13:17;;;;;;;50.80;14.78;;;;;;;-15.24;63.98;100174.55;1695709;83;23540;-55
2021/01/20 07:15:48;;;;;;;34.10;9.40;;;;;;;-15.15;64.08;100169.54;1691437;83;21222;-53
2021/01/20 07:18:16;;;;;;;34.17;7.93;;;;;;;-15.05;64.10;100161.91;1695202;83;21887;-55
2021/01/20 07:20:45;;;;;;;54.43;15.47;;;;;;;-14.97;64.28;100155.53;1682676;83;21940;-52
2021/01/20 07:23:12;;;;;;;48.33;13.37;;;;;;;-14.87;64.28;100162.09;1664068;84;21965;-56
2021/01/20 07:25:39;;;;;;;54.60;17.47;;;;;;;-14.78;64.40;100160.04;1683712;83;21937;-52
2021/01/20 07:28:07;;;;;;;52.67;15.00;;;;;;;-14.68;64.48;100158.08;1683046;83;21944;-54
2021/01/20 07:30:34;;;;;;;52.50;15.97;;;;;;;-14.60;64.43;100154.23;1680927;83;22566;-53
2021/01/20 07:33:13;;;;;;;51.87;14.97;;;;;;;-14.50;64.51;100159.53;1653170;84;21947;-54
2021/01/20 07:35:40;;;;;;;48.23;14.50;;;;;;;-14.40;64.59;100168.30;1659733;84;22013;-55
2021/01/20 07:38:07;;;;;;;34.10;11.50;;;;;;;-14.29;64.62;100168.88;1677079;84;22449;-53
2021/01/20 07:40:38;;;;;;;43.53;12.40;;;;;;;-14.15;64.68;100168.34;1678583;84;21901;-55
2021/01/20 07:43:05;;;;;;;55.30;15.40;;;;;;;-14.02;64.75;100175.55;1659077;85;22241;-55
2021/01/20 07:45:38;;;;;;;53.43;14.43;;;;;;;-13.91;64.58;100177.05;1678500;84;21952;-54
2021/01/20 07:48:08;;;;;;;44.03;12.40;;;;;;;-13.83;64.57;100178.35;1654908;85;21518;-54
2021/01/20 07:50:46;;;;;;;32.50;10.13;;;;;;;-13.68;64.57;100189.92;1675263;84;21206;-51
2021/01/20 07:53:19;;;;;;;30.33;9.10;;;;;;;-13.57;64.57;100184.93;1656354;85;21906;-55
2021/01/20 07:55:49;;;;;;;43.90;13.80;;;;;;;-13.46;64.59;100181.23;1667782;84;22046;-53
2021/01/20 07:58:16;;;;;;;45.67;12.93;;;;;;;-13.36;64.50;100181.31;1657575;84;21953;-55
2021/01/20 08:00:47;;;;;;;44.10;12.40;;;;;;;-13.28;64.45;100181.30;1681791;83;21914;-56
2021/01/20 08:03:15;;;;;;;33.23;11.30;;;;;;;-13.10;64.53;100179.61;1682481;83;21202;-52
2021/01/20 08:05:43;;;;;;;37.43;10.40;;;;;;;-13.10;64.53;100179.61;1682484;83;21230;-57
2021/01/20 08:08:12;;;;;;;38.20;11.80;;;;;;;-12.98;64.51;100183.25;1681808;83;23363;-54
2021/01/20 08:10:42;;;;;;;41.30;14.43;;;;;;;-12.88;64.49;100180.73;1674798;84;21993;-57
2021/01/20 08:13:12;;;;;;;43.27;14.97;;;;;;;-12.80;64.49;100171.23;1675651;84;21234;-53
2021/01/20 08:15:41;;;;;;;46.50;13.23;;;;;;;-12.71;64.52;100182.06;1675030;84;21216;-58
2021/01/20 08:18:10;;;;;;;43.60;14.47;;;;;;;-12.63;64.53;100174.66;1676307;84;21169;-56
2021/01/20 08:20:37;;;;;;;40.80;12.77;;;;;;;-12.53;64.54;100179.91;1654285;83;21644;-55
2021/01/20 08:23:07;;;;;;;42.97;15.03;;;;;;;-12.40;64.55;100180.56;1679201;84;21513;-57
2021/01/20 08:25:35;;;;;;;37.03;13.43;;;;;;;-12.27;64.42;100177.77;1683408;83;21201;-57
2021/01/20 08:28:15;;;;;;;33.80;13.27;;;;;;;-12.15;64.21;100167.08;1678676;84;21162;-53
2021/01/20 08:30:43;;;;;;;33.03;10.60;;;;;;;-12.04;64.21;100176.68;1659618;85;21151;-56
2021/01/20 08:33:10;;;;;;;22.50;8.87;;;;;;;-11.93;64.17;100168.59;1661146;84;21393;-53
2021/01/20 08:35:39;;;;;;;29.70;9.40;;;;;;;-11.81;63.97;100159.17;1584903;85;21183;-54
2021/01/20 08:38:06;;;;;;;30.57;8.83;;;;;;;-11.72;63.77;100172.95;1652485;85;21178;-56
2021/01/20 08:40:34;;;;;;;44.30;12.63;;;;;;;-11.66;63.73;100172.86;1631459;85;21142;-56
2021/01/20 08:43:01;;;;;;;25.03;7.60;;;;;;;-11.58;63.65;100166.70;1634865;86;21158;-54
2021/01/20 08:45:32;;;;;;;34.50;11.40;;;;;;;-11.50;63.61;100164.94;1653761;83;21214;-53
2021/01/20 08:48:07;;;;;;;33.27;10.80;;;;;;;-11.40;63.58;100166.66;1647865;85;22835;-56
2021/01/20 08:50:41;;;;;;;27.37;10.07;;;;;;;-11.32;63.49;100159.69;1621835;86;21142;-56
2021/01/20 08:53:12;;;;;;;27.73;9.97;;;;;;;-11.22;63.46;100164.44;1648794;85;21126;-56
2021/01/20 08:55:52;;;;;;;33.30;10.73;;;;;;;-11.13;63.35;100153.56;1647378;85;21166;-55
2021/01/20 08:58:32;;;;;;;30.10;10.60;;;;;;;-11.05;63.27;100156.08;1646608;85;21688;-52
2021/01/20 09:01:09;;;;;;;28.00;9.10;;;;;;;-10.96;63.09;100161.68;1648466;85;21237;-53
2021/01/20 09:03:37;;;;;;;32.20;11.37;;;;;;;-10.88;63.06;100152.50;1646516;85;21174;-52
2021/01/20 09:06:15;;;;;;;23.43;9.43;;;;;;;-10.79;62.91;100150.70;1635562;86;21661;-52
2021/01/20 09:08:42;;;;;;;31.13;10.33;;;;;;;-10.73;62.76;100149.27;1647677;85;21236;-53
2021/01/20 09:11:09;;;;;;;20.90;4.43;;;;;;;-10.68;62.65;100152.05;1644319;85;21422;-55
2021/01/20 09:13:37;;;;;;;27.70;9.60;;;;;;;-10.62;62.34;100159.22;1649037;85;21156;-54
2021/01/20 09:16:07;;;;;;;24.67;7.93;;;;;;;-10.58;62.25;100155.93;1652863;85;21198;-52
2021/01/20 09:18:34;;;;;;;30.17;11.60;;;;;;;-10.55;62.13;100149.56;1650209;85;21100;-55
2021/01/20 09:21:01;;;;;;;33.80;10.10;;;;;;;-10.51;62.11;100157.55;1649159;85;21242;-51
2021/01/20 09:23:28;;;;;;;24.67;8.93;;;;;;;-10.45;62.11;100151.28;1647777;85;21371;-55
2021/01/20 09:25:55;;;;;;;26.03;9.37;;;;;;;-10.38;61.95;100158.55;1618460;87;21330;-52
2021/01/20 09:28:23;;;;;;;22.27;9.13;;;;;;;-10.33;61.91;100153.52;1646667;85;21543;-52
2021/01/20 09:30:50;;;;;;;34.27;10.90;;;;;;;-10.28;61.82;100164.09;1647317;85;21251;-54
2021/01/20 09:33:18;;;;;;;25.27;10.17;;;;;;;-10.24;61.58;100163.00;1666223;83;21213;-54
2021/01/20 09:35:46;;;;;;;33.53;10.00;;;;;;;-10.21;61.54;100154.02;1684914;83;22315;-55
2021/01/20 09:38:13;;;;;;;30.20;9.60;;;;;;;-10.16;61.50;100152.45;1685191;83;21222;-54
2021/01/20 09:40:41;;;;;;;20.30;6.63;;;;;;;-10.07;61.41;100146.30;1685079;83;21169;-56
2021/01/20 09:43:08;;;;;;;29.50;10.07;;;;;;;-9.98;61.16;100142.77;1685407;83;21221;-55
2021/01/20 09:45:35;;;;;;;31.80;9.93;;;;;;;-9.92;61.20;100136.00;1685598;83;21839;-55
2021/01/20 09:48:05;;;;;;;33.30;10.47;;;;;;;-9.87;61.09;100139.70;1686474;83;22200;-55
2021/01/20 09:50:34;;;;;;;31.30;11.43;;;;;;;-9.81;60.93;100140.81;1669913;84;21230;-55
2021/01/20 10:04:40;;;;;;;36.23;10.47;;;;;;;-9.64;60.36;100121.91;1750129;78;22457;-56
2021/01/20 10:07:08;;;;;;;25.90;7.20;;;;;;;-9.69;60.36;100123.02;1723553;80;22623;-54
2021/01/20 10:09:37;;;;;;;13.60;5.70;;;;;;;-9.68;60.47;100130.02;1728984;80;21710;-55
2021/01/20 10:12:08;;;;;;;26.37;8.73;;;;;;;-9.65;60.52;100121.02;1693874;82;21196;-56
2021/01/20 10:14:35;;;;;;;26.37;8.07;;;;;;;-9.59;60.51;100133.38;1645564;83;21221;-52
2021/01/20 10:17:04;;;;;;;24.97;8.60;;;;;;;-9.60;60.17;100125.98;1684806;82;21501;-55
2021/01/20 10:19:31;;;;;;;21.57;7.33;;;;;;;-9.57;60.21;100125.22;1690476;82;21156;-54
2021/01/20 10:21:58;;;;;;;29.13;9.47;;;;;;;-9.50;60.08;100131.53;1688726;82;21447;-53
2021/01/20 10:24:26;;;;;;;21.27;8.13;;;;;;;-9.46;59.79;100121.71;1688162;82;21231;-55
2021/01/20 10:26:53;;;;;;;27.20;10.33;;;;;;;-9.45;59.82;100123.48;1686285;82;21503;-54
2021/01/20 10:29:20;;;;;;;23.63;10.13;;;;;;;-9.43;59.93;100124.41;1683772;82;21856;-53
2021/01/20 10:31:48;;;;;;;23.70;7.47;;;;;;;-9.39;60.00;100122.41;1680601;82;21210;-51
2021/01/20 10:34:15;;;;;;;21.10;7.13;;;;;;;-9.33;59.84;100126.11;1680385;82;21246;-55
2021/01/20 10:36:44;;;;;;;25.50;8.13;;;;;;;-9.27;59.72;100127.63;1685319;82;21664;-55
2021/01/20 10:39:12;;;;;;;22.67;7.30;;;;;;;-9.21;59.67;100129.18;1682263;82;22185;-55
2021/01/20 10:41:39;;;;;;;18.67;7.27;;;;;;;-9.13;59.47;100122.05;1679811;82;21398;-53
2021/01/20 10:44:06;;;;;;;24.27;8.57;;;;;;;-9.07;59.38;100119.64;1669110;83;21214;-55
2021/01/20 10:46:33;;;;;;;26.07;9.63;;;;;;;-9.03;59.34;100112.41;1673641;83;21720;-55
2021/01/20 10:49:01;;;;;;;29.10;8.53;;;;;;;-8.97;59.15;100121.33;1671474;83;21247;-52
2021/01/20 10:51:31;;;;;;;18.20;7.27;;;;;;;-8.94;58.95;100118.84;1643126;85;21207;-53
2021/01/20 10:53:58;;;;;;;22.27;6.20;;;;;;;-8.88;59.02;100116.44;1663904;84;21300;-55
2021/01/20 10:56:25;;;;;;;17.87;7.00;;;;;;;-8.84;58.77;100112.19;1677003;83;21133;-54
2021/01/20 10:58:52;;;;;;;27.63;8.30;;;;;;;-8.78;58.55;100108.51;1675529;83;21401;-52
2021/01/20 11:01:20;;;;;;;15.53;6.77;;;;;;;-8.75;58.42;100105.09;1673574;83;21624;-55
2021/01/20 11:03:47;;;;;;;25.17;7.70;;;;;;;-8.70;58.35;100104.44;1675763;83;21496;-56
2021/01/20 11:06:15;;;;;;;16.57;5.30;;;;;;;-8.67;58.32;100101.91;1655585;84;21204;-52
2021/01/20 11:08:43;;;;;;;24.53;7.83;;;;;;;-8.63;58.09;100095.97;1697053;82;21198;-53
2021/01/20 11:11:11;;;;;;;21.53;6.90;;;;;;;-8.57;58.07;100096.58;1700678;82;22659;-54
2021/01/20 11:13:39;;;;;;;17.57;6.10;;;;;;;-8.50;57.92;100092.02;1700328;82;21164;-52
2021/01/20 11:16:09;;;;;;;18.17;4.73;;;;;;;-8.44;57.72;100091.83;1695114;82;21148;-53
2021/01/20 11:18:37;;;;;;;23.30;7.83;;;;;;;-8.35;57.62;100091.24;1698859;82;21188;-52
2021/01/20 11:21:05;;;;;;;19.63;6.63;;;;;;;-8.29;57.28;100087.89;1693033;82;21718;-53
2021/01/20 11:23:35;;;;;;;22.13;8.43;;;;;;;-8.25;57.26;100091.09;1693961;82;21401;-54
2021/01/20 11:26:04;;;;;;;15.53;6.30;;;;;;;-8.22;56.89;100093.36;1696853;82;21155;-54
2021/01/20 11:28:33;;;;;;;22.30;6.57;;;;;;;-8.21;56.67;100092.94;1697862;82;21144;-52
2021/01/20 11:31:01;;;;;;;16.90;6.50;;;;;;;-8.19;56.66;100097.38;1695852;82;21135;-52
2021/01/20 11:33:30;;;;;;;19.57;7.00;;;;;;;-8.16;56.65;100097.45;1693992;82;20958;-52